LSZB 200120Z AUTO 08007KT 9999 SCT130 15/13 Q1025 LSZB 200050Z AUTO 08006KT 9999 BKN130 15/13 Q1025 LSZB 200020Z AUTO 09005KT 9999 NCD 15/13 Q1025 LSZB 192350Z AUTO 08006KT 9999 FEW130 15/13 Q1025 LSZB 192320Z AUTO 09007KT 9999 NCD 16/13 Q1025 LSZB 192250Z AUTO 09005KT 9999 FEW120 BKN130 16/14 Q1025 LSZB 192220Z AUTO 08006KT 9999 BKN120 17/13 Q1025 LSZB 192150Z AUTO 08006KT 9999 NCD 18/13 Q1024 LSZB 192120Z 11005KT 060V140 CAVOK 19/13 Q1024 NOSIG LSZB 192050Z 09007KT 060V130 9999 BKN130 19/13 Q1024 NOSIG LSZB 192020Z 10005KT 070V150 9999 FEW130 20/13 Q1024 NOSIG LSZB 191950Z AUTO 11008KT 060V140 9999 FEW120 SCT130 20/12 Q1024 LSZB 191920Z AUTO 10010KT 9999 FEW130 20/13 Q1024 LSZB 191850Z 12009KT CAVOK 21/13 Q1023 NOSIG LSZB 191820Z 12010KT CAVOK 22/13 Q1023 NOSIG LSZB 191750Z 15011KT CAVOK 23/12 Q1023 NOSIG LSZB 191720Z 15012KT 9999 FEW130 24/13 Q1023 NOSIG LSZB 191650Z AUTO 15012KT 9999 SCT///CB 24/13 Q1023 LSZB 191620Z 19012KT 160V240 9999 FEW110 SCT120CB 26/14 Q1023 NOSIG LSZB 191550Z 30011KT 9999 SCT130CB 27/13 Q1023 NOSIG LSZB 191520Z 28013KT 9999 SCT130CB 27/11 Q1022 NOSIG LSZB 191450Z 27014KT 9999 SCT130CB 28/09 Q1022 NOSIG LSZB 191420Z 27014KT 9999 FEW130 SCT140CB 29/10 Q1022 NOSIG LSZB 191350Z 26016KT 190V300 9999 FEW140 SCT150CB 29/07 Q1022 NOSIG LSZB 191320Z 26013G23KT 9999 FEW140CB 28/08 Q1022 NOSIG LSZB 191250Z 27015KT 9999 FEW130CB 29/11 Q1022 NOSIG LSZB 191220Z 31004KT 260V040 9999 FEW130CB 29/13 Q1022 NOSIG LSZB 191150Z 29006KT 240V330 9999 FEW050TCU 28/15 Q1023 NOSIG LSZB 191120Z 29008KT 9999 FEW050TCU 27/15 Q1023 NOSIG LSZB 191050Z 33004KT 290V010 9999 FEW050TCU 26/16 Q1023 NOSIG LSZB 191020Z 34005KT 9999 FEW050 26/15 Q1023 NOSIG LSZB 190950Z 28008KT CAVOK 24/15 Q1023 NOSIG LSZB 190920Z 29007KT CAVOK 25/15 Q1023 NOSIG LSZB 190850Z 28005KT CAVOK 24/14 Q1023 NOSIG LSZB 190820Z 00000KT CAVOK 25/15 Q1023 NOSIG LSZB 190750Z VRB02KT CAVOK 23/15 Q1024 NOSIG LSZB 190720Z 00000KT CAVOK 21/14 Q1024 NOSIG LSZB 190650Z 00000KT CAVOK 21/14 Q1024 NOSIG LSZB 190620Z VRB03KT CAVOK 20/15 Q1023 NOSIG LSZB 190550Z VRB03KT CAVOK 17/15 Q1023 NOSIG LSZB 190520Z VRB02KT CAVOK 14/13 Q1023 NOSIG LSZB 190450Z VRB01KT CAVOK 12/12 Q1023 NOSIG LSZB 190420Z VRB01KT CAVOK 12/11 Q1022 NOSIG LSZB 190350Z 05001KT CAVOK 12/11 Q1022 NOSIG LSZB 190320Z AUTO 29002KT 9999 NCD 13/12 Q1022 LSZB 190250Z AUTO VRB01KT 9999 NCD 13/12 Q1022 LSZB 190220Z AUTO VRB01KT 9999 NCD 13/12 Q1022 LSZB 190150Z AUTO VRB01KT 9999 NCD 13/12 Q1022 LSZB 190120Z AUTO VRB01KT 9999 NCD 13/12 Q1022 LSZB 190050Z AUTO VRB01KT 9999 NCD 13/12 Q1021 LSZB 190020Z AUTO VRB01KT 9999 FEW080 15/13 Q1021 LSZB 182350Z AUTO VRB01KT 9999 NCD 14/13 Q1021 LSZB 182320Z AUTO VRB01KT 9999 NCD 14/12 Q1021 LSZB 182250Z AUTO 11002KT 9999 NCD 14/12 Q1021 LSZB 182220Z AUTO VRB01KT 9999 NCD 15/13 Q1021 LSZB 182150Z AUTO 00000KT 9999 NCD 15/13 Q1021 LSZB 182120Z AUTO 00000KT 9999 NCD 16/13 Q1021 LSZB 182050Z AUTO VRB02KT 9999 NCD 16/13 Q1021 LSZB 182020Z AUTO VRB01KT 9999 NCD 17/13 Q1020 LSZB 181950Z AUTO VRB01KT 9999 NCD 18/14 Q1020 LSZB 181920Z AUTO VRB01KT 9999 NCD 20/14 Q1020 LSZB 181850Z VRB02KT CAVOK 22/13 Q1020 NOSIG LSZB 181820Z 02003KT 330V060 CAVOK 25/12 Q1019 NOSIG LSZB 181750Z 02003KT 310V110 CAVOK 26/12 Q1019 NOSIG LSZB 181720Z 04005KT 350V080 CAVOK 26/12 Q1019 NOSIG LSZB 181650Z 02005KT 310V100 CAVOK 27/12 Q1019 NOSIG LSZB 181620Z 02005KT 320V110 CAVOK 27/12 Q1019 NOSIG LSZB 181550Z 04005KT 350V100 9999 FEW055 27/13 Q1019 NOSIG LSZB 181520Z 33006KT 260V030 9999 FEW055 27/13 Q1020 NOSIG LSZB 181450Z 35006KT 280V050 9999 FEW060 27/13 Q1020 NOSIG LSZB 181420Z 03005KT CAVOK 28/13 Q1020 NOSIG LSZB 181350Z 04005KT 290V100 9999 FEW060 27/13 Q1020 NOSIG

METAR Messwerte "BERN/BELP" LSZB

Zurück zur Übersicht

Ortsname
Ländercode / m ü. NN
Zeit Temperatur Taupunkt Rel.
Luftfeuchte
Luftdruck:
Altimeter
NN
Station
Wind in Beaufort
(Knoten)
Sichtweite
(Meter)
Wolken
(Meter über Grund)
Wettererscheinung
BERN/BELP
CH 510
Fr 20.05. 03:20151388 %1025
1025
965
O 3 (7)>= 10000Wolkig (4000) 
BERN/BELP
CH 510
Fr 20.05. 02:50151388 %1025
1025
965
O 2 (6)>= 10000Stark bewölkt (4000) 
BERN/BELP
CH 510
Fr 20.05. 02:20151388 %1025
1025
965
O 2 (5)>= 10000  
BERN/BELP
CH 510
Fr 20.05. 01:50151388 %1025
1025
965
O 2 (6)>= 10000Leicht bewölkt (4000) 
BERN/BELP
CH 510
Fr 20.05. 01:20161382 %1025
1025
965
O 3 (7)>= 10000  
BERN/BELP
CH 510
Fr 20.05. 00:50161488 %1025
1025
965
O 2 (5)>= 10000Stark bewölkt (4000)
Leicht bewölkt (3700)
 
BERN/BELP
CH 510
Fr 20.05. 00:20171377 %1025
1025
965
O 2 (6)>= 10000Stark bewölkt (3700) 
BERN/BELP
CH 510
Do 19.05. 23:50181373 %1024
1023
964
O 2 (6)>= 10000  
BERN/BELP
CH 510
Do 19.05. 23:20191368 %1024
1023
964
OSO 2 (5)
ONO - SO
>= 10000Nicht signifikant 
BERN/BELP
CH 510
Do 19.05. 22:50191368 %1024
1023
964
O 3 (7)
ONO - SO
>= 10000Stark bewölkt (4000) 
BERN/BELP
CH 510
Do 19.05. 22:20201364 %1024
1023
964
O 2 (5)
ONO - SSO
>= 10000Leicht bewölkt (4000) 
BERN/BELP
CH 510
Do 19.05. 21:50201260 %1024
1023
964
OSO 3 (8)
ONO - SO
>= 10000Wolkig (4000)
Leicht bewölkt (3700)
 
BERN/BELP
CH 510
Do 19.05. 21:20201364 %1024
1023
964
O 3 (10)>= 10000Leicht bewölkt (4000) 
BERN/BELP
CH 510
Do 19.05. 20:50211360 %1023
1022
963
OSO 3 (9)>= 10000Nicht signifikant 
BERN/BELP
CH 510
Do 19.05. 20:20221357 %1023
1022
963
OSO 3 (10)>= 10000Nicht signifikant 
BERN/BELP
CH 510
Do 19.05. 19:50231250 %1023
1021
963
SSO 4 (11)>= 10000Nicht signifikant 
BERN/BELP
CH 510
Do 19.05. 19:20241350 %1023
1021
963
SSO 4 (12)>= 10000Leicht bewölkt (4000) 
BERN/BELP
CH 510
Do 19.05. 18:50241350 %1023
1021
963
SSO 4 (12)>= 10000  
BERN/BELP
CH 510
Do 19.05. 18:20261448 %1023
1021
963
S 4 (12)
SSO - WSW
>= 10000Wolkig Cb (3700)
Leicht bewölkt (3400)
 
BERN/BELP
CH 510
Do 19.05. 17:50271342 %1023
1021
963
WNW 4 (11)>= 10000Wolkig Cb (4000) 
BERN/BELP
CH 510
Do 19.05. 17:20271137 %1022
1020
962
W 4 (13)>= 10000Wolkig Cb (4000) 
BERN/BELP
CH 510
Do 19.05. 16:5028930 %1022
1019
962
W 4 (14)>= 10000Wolkig Cb (4000) 
BERN/BELP
CH 510
Do 19.05. 16:20291031 %1022
1019
962
W 4 (14)>= 10000Wolkig Cb (4300)
Leicht bewölkt (4000)
 
BERN/BELP
CH 510
Do 19.05. 15:5029725 %1022
1019
962
W 5 (16)
S - WNW
>= 10000Wolkig Cb (4600)
Leicht bewölkt (4300)
 
BERN/BELP
CH 510
Do 19.05. 15:2028828 %1022
1019
962
W 4 (13) - 6 (23)>= 10000Leicht bewölkt Cb (4300) 
BERN/BELP
CH 510
Do 19.05. 14:50291133 %1022
1019
962
W 4 (15)>= 10000Leicht bewölkt Cb (4000) 
BERN/BELP
CH 510
Do 19.05. 14:20291337 %1022
1019
962
NW 2 (4)
W - NO
>= 10000Leicht bewölkt Cb (4000) 
BERN/BELP
CH 510
Do 19.05. 13:50281545 %1023
1020
963
WNW 2 (6)
WSW - NNW
>= 10000Leicht bewölkt (1500) 
BERN/BELP
CH 510
Do 19.05. 13:20271548 %1023
1021
963
WNW 3 (8)>= 10000Leicht bewölkt (1500) 
BERN/BELP
CH 510
Do 19.05. 12:50261654 %1023
1021
963
NNW 2 (4)
WNW - N
>= 10000Leicht bewölkt (1500) 
BERN/BELP
CH 510
Do 19.05. 12:20261551 %1023
1021
963
NNW 2 (5)>= 10000Leicht bewölkt (1500) 
BERN/BELP
CH 510
Do 19.05. 11:50241557 %1023
1021
963
W 3 (8)>= 10000Nicht signifikant 
BERN/BELP
CH 510
Do 19.05. 11:20251554 %1023
1021
963
WNW 3 (7)>= 10000Nicht signifikant 
BERN/BELP
CH 510
Do 19.05. 10:50241454 %1023
1021
963
W 2 (5)>= 10000Nicht signifikant 
BERN/BELP
CH 510
Do 19.05. 10:20251554 %1023
1021
963
Windstill>= 10000Nicht signifikant 
BERN/BELP
CH 510
Do 19.05. 09:50231561 %1024
1022
964
Uml 1 (2)>= 10000Nicht signifikant 
BERN/BELP
CH 510
Do 19.05. 09:20211464 %1024
1023
964
Windstill>= 10000Nicht signifikant 
BERN/BELP
CH 510
Do 19.05. 08:50211464 %1024
1023
964
Windstill>= 10000Nicht signifikant 
BERN/BELP
CH 510
Do 19.05. 08:20201573 %1023
1022
963
Uml 2 (3)>= 10000Nicht signifikant 
BERN/BELP
CH 510
Do 19.05. 07:50171588 %1023
1023
963
Uml 2 (3)>= 10000Nicht signifikant 
BERN/BELP
CH 510
Do 19.05. 07:20141394 %1023
1023
963
Uml 1 (2)>= 10000Nicht signifikant 
BERN/BELP
CH 510
Do 19.05. 06:501212100 %1023
1024
963
Uml 1 (1)>= 10000Nicht signifikant 
BERN/BELP
CH 510
Do 19.05. 06:20121194 %1022
1023
962
Uml 1 (1)>= 10000Nicht signifikant 
BERN/BELP
CH 510
Do 19.05. 05:50121194 %1022
1023
962
NO 1 (1)>= 10000Nicht signifikant 
BERN/BELP
CH 510
Do 19.05. 05:20131294 %1022
1023
962
WNW 1 (2)>= 10000  
BERN/BELP
CH 510
Do 19.05. 04:50131294 %1022
1023
962
Uml 1 (1)>= 10000  
BERN/BELP
CH 510
Do 19.05. 04:20131294 %1022
1023
962
Uml 1 (1)>= 10000  
BERN/BELP
CH 510
Do 19.05. 03:50131294 %1022
1023
962
Uml 1 (1)>= 10000  
BERN/BELP
CH 510
Do 19.05. 03:20131294 %1022
1023
962
Uml 1 (1)>= 10000  
BERN/BELP
CH 510
Do 19.05. 02:50131294 %1021
1022
961
Uml 1 (1)>= 10000  
BERN/BELP
CH 510
Do 19.05. 02:20151388 %1021
1021
961
Uml 1 (1)>= 10000Leicht bewölkt (2400) 
BERN/BELP
CH 510
Do 19.05. 01:50141394 %1021
1021
961
Uml 1 (1)>= 10000  
BERN/BELP
CH 510
Do 19.05. 01:20141288 %1021
1021
961
Uml 1 (1)>= 10000  
BERN/BELP
CH 510
Do 19.05. 00:50141288 %1021
1021
961
OSO 1 (2)>= 10000  
BERN/BELP
CH 510
Do 19.05. 00:20151388 %1021
1021
961
Uml 1 (1)>= 10000  
BERN/BELP
CH 510
Mi 18.05. 23:50151388 %1021
1021
961
Windstill>= 10000  
BERN/BELP
CH 510
Mi 18.05. 23:20161382 %1021
1021
961
Windstill>= 10000  
BERN/BELP
CH 510
Mi 18.05. 22:50161382 %1021
1021
961
Uml 1 (2)>= 10000  
BERN/BELP
CH 510
Mi 18.05. 22:20171377 %1020
1020
960
Uml 1 (1)>= 10000  
BERN/BELP
CH 510
Mi 18.05. 21:50181477 %1020
1019
960
Uml 1 (1)>= 10000  
BERN/BELP
CH 510
Mi 18.05. 21:20201468 %1020
1019
960
Uml 1 (1)>= 10000  
BERN/BELP
CH 510
Mi 18.05. 20:50221357 %1020
1019
960
Uml 1 (2)>= 10000Nicht signifikant 
BERN/BELP
CH 510
Mi 18.05. 20:20251244 %1019
1017
959
NNO 2 (3)
NNW - ONO
>= 10000Nicht signifikant 
BERN/BELP
CH 510
Mi 18.05. 19:50261242 %1019
1017
959
NNO 2 (3)
NW - OSO
>= 10000Nicht signifikant 
BERN/BELP
CH 510
Mi 18.05. 19:20261242 %1019
1017
959
NO 2 (5)
N - O
>= 10000Nicht signifikant 
BERN/BELP
CH 510
Mi 18.05. 18:50271239 %1019
1017
959
NNO 2 (5)
NW - O
>= 10000Nicht signifikant 
BERN/BELP
CH 510
Mi 18.05. 18:20271239 %1019
1017
959
NNO 2 (5)
NW - OSO
>= 10000Nicht signifikant 
BERN/BELP
CH 510
Mi 18.05. 17:50271342 %1019
1017
959
NO 2 (5)
N - O
>= 10000Leicht bewölkt (1700) 
BERN/BELP
CH 510
Mi 18.05. 17:20271342 %1020
1018
960
NNW 2 (6)
W - NNO
>= 10000Leicht bewölkt (1700) 
BERN/BELP
CH 510
Mi 18.05. 16:50271342 %1020
1018
960
N 2 (6)
W - NO
>= 10000Leicht bewölkt (1800) 
BERN/BELP
CH 510
Mi 18.05. 16:20281340 %1020
1017
960
NNO 2 (5)>= 10000Nicht signifikant 
BERN/BELP
CH 510
Mi 18.05. 15:50271342 %1020
1018
960
NO 2 (5)
WNW - O
>= 10000Leicht bewölkt (1800) 

Altimeter: Einstellung am Altimeter (Höhenmesser), die Höhe 0 muss auf diesen Luftdruckwert zeigen, damit das Gerät die Stationshöhe richtig anzeigt.

NN: Luftdruck reduziert auf "Normal Null", auf Meereshöhe, dieser von der Temperatur abhängige Wert wird bisweilen unkorrekt einfach als "Luftdruck" bezeichnet. Eigentlich nur eine fiktive Größe, die es erlaubt, Stationen auf unterschiedlichen Höhen miteinander zu vergleichen.

Station: Realer Luftdruck an der Station.